createdAt,value
2022-10-09T00:02:00.629Z,100458.13
2022-10-09T00:06:03.518Z,100458.66
2022-10-09T00:10:05.922Z,100469.00
2022-10-09T00:14:07.822Z,100473.79
2022-10-09T00:18:12.011Z,100479.03
2022-10-09T00:22:13.841Z,100483.98
2022-10-09T00:26:16.375Z,100488.71
2022-10-09T00:30:18.266Z,100489.22
2022-10-09T00:34:20.148Z,100490.34
2022-10-09T00:38:21.968Z,100488.98
2022-10-09T00:42:26.009Z,100485.23
2022-10-09T00:46:47.914Z,100490.16
2022-10-09T00:50:54.112Z,100495.33
2022-10-09T00:54:56.923Z,100497.73
2022-10-09T00:58:59.489Z,100498.97
2022-10-09T01:03:01.403Z,100502.11
2022-10-09T01:07:13.328Z,100498.52
2022-10-09T01:12:00.367Z,100502.66
2022-10-09T01:16:28.362Z,100504.69
2022-10-09T01:20:39.178Z,100509.12
2022-10-09T01:24:47.860Z,100513.42
2022-10-09T01:28:58.978Z,100518.76
2022-10-09T01:33:02.668Z,100518.48
2022-10-09T01:37:07.208Z,100521.29
2022-10-09T01:41:09.701Z,100524.99
2022-10-09T01:45:13.882Z,100524.23
2022-10-09T01:49:36.806Z,100527.51
2022-10-09T01:53:39.644Z,100533.13
2022-10-09T01:57:56.719Z,100540.14
2022-10-09T02:02:00.312Z,100535.95
2022-10-09T02:06:05.716Z,100539.58
2022-10-09T02:10:08.966Z,100544.53
2022-10-09T02:14:11.480Z,100551.97
2022-10-09T02:18:18.836Z,100562.13
2022-10-09T02:22:31.925Z,100568.30
2022-10-09T02:26:34.169Z,100569.52
2022-10-09T02:31:19.273Z,100573.48
2022-10-09T02:35:21.570Z,100578.19
2022-10-09T02:39:23.508Z,100583.92
2022-10-09T02:43:25.528Z,100585.94
2022-10-09T02:47:27.367Z,100588.87
2022-10-09T02:51:29.197Z,100594.99
2022-10-09T02:55:31.032Z,100596.86
2022-10-09T02:59:32.961Z,100596.36
2022-10-09T03:03:35.176Z,100602.34
2022-10-09T03:07:37.246Z,100610.03
2022-10-09T03:11:39.074Z,100617.30
2022-10-09T03:15:41.009Z,100624.64
2022-10-09T03:19:42.973Z,100629.06
2022-10-09T03:23:45.191Z,100632.99
2022-10-09T03:27:47.021Z,100632.62
2022-10-09T03:31:53.330Z,100640.36
2022-10-09T03:35:55.672Z,100636.67
2022-10-09T03:39:58.408Z,100637.48
2022-10-09T03:44:00.429Z,100637.98
2022-10-09T03:48:02.624Z,100642.46
2022-10-09T03:52:04.486Z,100647.73
2022-10-09T03:56:06.525Z,100657.09
2022-10-09T04:00:10.105Z,100659.05
2022-10-09T04:04:11.937Z,100663.59
2022-10-09T04:08:14.277Z,100672.66
2022-10-09T04:12:16.203Z,100674.65
2022-10-09T04:16:18.153Z,100675.60
2022-10-09T04:20:21.038Z,100685.33
2022-10-09T04:24:22.942Z,100686.52
2022-10-09T04:28:26.490Z,100684.95
2022-10-09T04:32:28.410Z,100688.98
2022-10-09T04:36:30.289Z,100692.53
2022-10-09T04:40:32.093Z,100693.85
2022-10-09T04:44:33.960Z,100700.36
2022-10-09T04:48:40.188Z,100710.45
2022-10-09T04:52:42.030Z,100713.84
2022-10-09T04:56:43.957Z,100721.00
2022-10-09T05:00:46.273Z,100719.85
2022-10-09T05:04:48.248Z,100725.02
2022-10-09T05:08:51.024Z,100731.94
2022-10-09T05:12:53.254Z,100732.70
2022-10-09T05:17:12.888Z,100736.77
2022-10-09T05:21:16.609Z,100744.09
2022-10-09T05:25:18.469Z,100747.07
2022-10-09T05:29:20.473Z,100751.12
2022-10-09T05:33:22.454Z,100759.60
2022-10-09T05:37:24.313Z,100762.74
2022-10-09T05:41:26.434Z,100765.78
2022-10-09T05:45:28.285Z,100762.54
2022-10-09T05:49:30.157Z,100768.52
2022-10-09T05:53:32.195Z,100770.09
2022-10-09T05:57:34.111Z,100782.83
2022-10-09T06:01:39.035Z,100793.31
2022-10-09T06:05:40.908Z,100798.65
2022-10-09T06:09:42.897Z,100811.42
2022-10-09T06:13:45.658Z,100824.09
2022-10-09T06:17:47.580Z,100832.23
2022-10-09T06:21:50.218Z,100834.37
2022-10-09T06:25:57.833Z,100839.84
2022-10-09T06:29:59.652Z,100846.51
2022-10-09T06:34:02.900Z,100852.66
2022-10-09T06:38:04.845Z,100862.14
2022-10-09T06:42:06.694Z,100875.67
2022-10-09T06:46:23.363Z,100877.95
2022-10-09T06:50:25.269Z,100883.88
2022-10-09T06:54:27.162Z,100894.79
2022-10-09T06:58:29.330Z,100900.77
2022-10-09T07:02:34.104Z,100905.29
2022-10-09T07:06:41.762Z,100906.10
2022-10-09T07:10:43.585Z,100908.30
2022-10-09T07:14:45.515Z,100913.69
2022-10-09T07:18:47.765Z,100914.63
2022-10-09T07:22:49.865Z,100915.84
2022-10-09T07:26:54.693Z,100919.65
2022-10-09T07:30:56.962Z,100920.54
2022-10-09T07:34:58.856Z,100932.00
2022-10-09T07:39:01.305Z,100932.89
2022-10-09T07:43:03.167Z,100942.44
2022-10-09T07:47:05.054Z,100945.45
2022-10-09T07:51:21.994Z,100953.16
2022-10-09T07:55:23.946Z,100955.23
2022-10-09T07:59:25.817Z,100961.23
2022-10-09T08:03:27.624Z,100966.96
2022-10-09T08:07:34.821Z,100970.94
2022-10-09T08:11:40.106Z,100973.59
2022-10-09T08:15:43.207Z,100973.59
2022-10-09T08:19:45.178Z,100983.08
2022-10-09T08:23:47.101Z,100983.81
2022-10-09T08:27:52.261Z,100989.73
2022-10-09T08:31:54.148Z,100992.13
2022-10-09T08:36:07.319Z,101002.86
2022-10-09T08:40:16.817Z,101005.23
2022-10-09T08:44:33.375Z,101010.73
2022-10-09T08:48:43.911Z,101018.73
2022-10-09T08:52:50.190Z,101033.61
2022-10-09T08:56:52.678Z,101040.61
2022-10-09T09:01:06.957Z,101046.81
2022-10-09T09:05:36.449Z,101044.58
2022-10-09T09:09:50.668Z,101046.61
2022-10-09T09:14:21.543Z,101047.55
2022-10-09T09:18:42.829Z,101046.70
2022-10-09T09:22:48.557Z,101051.64
2022-10-09T09:26:55.339Z,101050.52
2022-10-09T09:31:12.781Z,101053.30
2022-10-09T09:35:20.787Z,101052.45
2022-10-09T09:40:08.327Z,101055.20
2022-10-09T09:43:47.834Z,101056.26
2022-10-09T09:48:04.175Z,101060.41
2022-10-09T09:52:08.866Z,101066.89
2022-10-09T09:56:10.876Z,101070.06
2022-10-09T10:00:15.796Z,101066.89
2022-10-09T10:04:20.233Z,101067.73
2022-10-09T10:08:33.438Z,101063.43
2022-10-09T10:13:02.421Z,101066.09
2022-10-09T10:17:05.511Z,101067.88
2022-10-09T10:21:12.392Z,101070.71
2022-10-09T10:25:18.437Z,101071.98
2022-10-09T10:29:27.127Z,101071.48
2022-10-09T10:33:33.179Z,101071.14
2022-10-09T10:37:46.687Z,101074.38
2022-10-09T10:41:53.406Z,101078.23
2022-10-09T10:46:56.967Z,101079.08
2022-10-09T10:51:20.193Z,101087.30
2022-10-09T10:55:52.582Z,101093.48
2022-10-09T11:00:10.459Z,101096.26
2022-10-09T11:04:32.926Z,101099.73
2022-10-09T11:08:55.898Z,101105.84
2022-10-09T11:13:03.393Z,101106.73
2022-10-09T11:17:28.427Z,101106.65
2022-10-09T11:21:55.032Z,101110.52
2022-10-09T11:26:45.103Z,101111.66
2022-10-09T11:31:02.919Z,101111.83
2022-10-09T11:35:40.254Z,101112.33
2022-10-09T11:39:43.136Z,101109.53
2022-10-09T11:44:00.729Z,101108.40
2022-10-09T11:48:12.442Z,101107.17
2022-10-09T11:52:35.319Z,101103.48
2022-10-09T11:56:37.304Z,101109.17
2022-10-09T12:00:42.574Z,101099.04
2022-10-09T12:05:01.078Z,101091.27
2022-10-09T12:09:07.769Z,101089.94
2022-10-09T12:13:29.645Z,101093.59
2022-10-09T12:17:34.948Z,101088.02
2022-10-09T12:21:45.405Z,101087.44
2022-10-09T12:25:48.571Z,101089.36
2022-10-09T12:29:55.495Z,101086.92
2022-10-09T12:34:05.590Z,101091.57
2022-10-09T12:38:26.741Z,101089.80
2022-10-09T12:42:29.123Z,101095.92
2022-10-09T12:46:35.842Z,101098.04
2022-10-09T12:50:38.986Z,101094.91
2022-10-09T12:54:43.856Z,101095.84
2022-10-09T12:58:46.067Z,101097.72
2022-10-09T13:02:48.507Z,101099.70
2022-10-09T13:06:52.286Z,101103.58
2022-10-09T13:10:55.069Z,101110.36
2022-10-09T13:15:04.556Z,101110.95
2022-10-09T13:19:23.980Z,101110.53
2022-10-09T13:23:29.742Z,101114.52
2022-10-09T13:27:35.015Z,101118.92
2022-10-09T13:31:37.567Z,101120.02
2022-10-09T13:35:39.548Z,101118.05
2022-10-09T13:39:43.119Z,101116.04
2022-10-09T13:43:45.733Z,101116.21
2022-10-09T13:47:48.158Z,101121.66
2022-10-09T13:51:50.439Z,101124.40
2022-10-09T13:55:55.924Z,101127.27
2022-10-09T13:59:59.772Z,101125.27
2022-10-09T14:04:01.940Z,101128.18
2022-10-09T14:08:04.380Z,101130.63
2022-10-09T14:12:06.397Z,101131.04
2022-10-09T14:16:10.538Z,101127.35
2022-10-09T14:20:12.504Z,101129.38
2022-10-09T14:24:15.064Z,101130.11
2022-10-09T14:28:17.091Z,101132.98
2022-10-09T14:32:19.095Z,101128.96
2022-10-09T14:36:21.020Z,101130.06
2022-10-09T14:40:22.913Z,101127.35
2022-10-09T14:44:25.261Z,101128.24
2022-10-09T14:48:27.082Z,101125.09
2022-10-09T14:52:29.002Z,101123.55
2022-10-09T14:56:31.224Z,101125.31
2022-10-09T15:00:33.141Z,101127.24
2022-10-09T15:04:35.039Z,101128.46
2022-10-09T15:08:40.300Z,101124.66
2022-10-09T15:12:42.129Z,101126.67
2022-10-09T15:16:44.440Z,101126.41
2022-10-09T15:20:46.550Z,101126.69
2022-10-09T15:24:49.110Z,101125.89
2022-10-09T15:28:51.125Z,101132.80
2022-10-09T15:32:53.161Z,101137.98
2022-10-09T15:36:55.067Z,101137.79
2022-10-09T15:40:57.047Z,101137.21
2022-10-09T15:44:59.573Z,101141.45
2022-10-09T15:49:01.553Z,101147.00
2022-10-09T15:53:10.086Z,101152.17
2022-10-09T15:57:12.270Z,101153.44
2022-10-09T16:01:16.902Z,101160.16
2022-10-09T16:05:19.485Z,101164.02
2022-10-09T16:09:21.577Z,101161.27
2022-10-09T16:13:26.266Z,101151.65
2022-10-09T16:17:28.077Z,101159.78
2022-10-09T16:21:30.091Z,101166.77
2022-10-09T16:25:32.644Z,101175.00
2022-10-09T16:29:35.561Z,101175.73
2022-10-09T16:33:37.623Z,101176.09
2022-10-09T16:37:39.520Z,101178.77
2022-10-09T16:41:42.173Z,101177.23
2022-10-09T16:45:44.962Z,101182.20
2022-10-09T16:49:47.005Z,101184.56
2022-10-09T16:53:53.528Z,101181.41
2022-10-09T16:57:55.997Z,101177.75
2022-10-09T17:01:59.818Z,101180.23
2022-10-09T17:06:05.896Z,101180.65
2022-10-09T17:10:09.067Z,101182.65
2022-10-09T17:14:11.647Z,101180.42
2022-10-09T17:18:13.525Z,101178.59
2022-10-09T17:22:15.367Z,101179.10
2022-10-09T17:26:19.090Z,101178.70
2022-10-09T17:30:21.484Z,101184.38
2022-10-09T17:34:23.615Z,101187.23
2022-10-09T17:38:25.735Z,101188.20
2022-10-09T17:42:27.555Z,101188.65
2022-10-09T17:46:30.259Z,101192.02
2022-10-09T17:50:32.594Z,101191.00
2022-10-09T17:54:34.567Z,101185.81
2022-10-09T17:58:36.716Z,101184.83
2022-10-09T18:02:38.645Z,101185.35
2022-10-09T18:06:41.075Z,101189.04
2022-10-09T18:10:43.571Z,101194.08
2022-10-09T18:14:46.146Z,101200.71
2022-10-09T18:18:48.652Z,101204.18
2022-10-09T18:22:50.521Z,101216.65
2022-10-09T18:26:59.461Z,101220.52
2022-10-09T18:31:13.968Z,101224.91
2022-10-09T18:35:16.298Z,101228.77
2022-10-09T18:39:20.985Z,101231.90
2022-10-09T18:43:22.942Z,101236.48
2022-10-09T18:47:28.128Z,101241.96
2022-10-09T18:51:31.399Z,101241.40
2022-10-09T18:55:33.623Z,101247.70
2022-10-09T18:59:37.633Z,101250.18
2022-10-09T19:03:44.774Z,101253.38
2022-10-09T19:07:49.661Z,101261.03
2022-10-09T19:11:52.237Z,101263.77
2022-10-09T19:15:58.200Z,101262.05
2022-10-09T19:20:00.675Z,101264.80
2022-10-09T19:24:05.642Z,101262.69
2022-10-09T19:28:07.513Z,101259.10
2022-10-09T19:32:09.417Z,101260.11
2022-10-09T19:36:13.218Z,101256.91
2022-10-09T19:40:15.176Z,101256.38
2022-10-09T19:44:17.435Z,101255.86
2022-10-09T19:48:19.960Z,101257.20
2022-10-09T19:52:22.785Z,101259.79
2022-10-09T19:56:27.130Z,101262.02
2022-10-09T20:00:29.532Z,101271.13
2022-10-09T20:04:31.749Z,101270.08
2022-10-09T20:08:34.201Z,101271.82
2022-10-09T20:12:36.128Z,101273.38
2022-10-09T20:16:38.113Z,101269.99
2022-10-09T20:20:46.414Z,101279.35
2022-10-09T20:24:48.281Z,101276.65
2022-10-09T20:28:53.452Z,101277.21
2022-10-09T20:32:58.994Z,101275.41
2022-10-09T20:37:01.247Z,101275.77
2022-10-09T20:41:06.245Z,101276.56
2022-10-09T20:45:08.372Z,101277.66
2022-10-09T20:49:12.845Z,101278.48
2022-10-09T20:53:16.248Z,101275.39
2022-10-09T20:57:18.144Z,101280.58
2022-10-09T21:01:21.046Z,101286.98
2022-10-09T21:05:23.149Z,101284.48
2022-10-09T21:09:27.482Z,101284.48
2022-10-09T21:13:31.480Z,101282.30
2022-10-09T21:17:33.380Z,101286.59
2022-10-09T21:21:35.561Z,101282.99
2022-10-09T21:25:38.059Z,101290.58
2022-10-09T21:29:39.914Z,101287.16
2022-10-09T21:33:42.216Z,101291.75
2022-10-09T21:37:44.248Z,101291.62
2022-10-09T21:41:46.289Z,101290.98
2022-10-09T21:45:51.543Z,101290.77
2022-10-09T21:49:53.505Z,101293.10
2022-10-09T21:53:55.458Z,101291.79
2022-10-09T21:57:57.384Z,101287.20
2022-10-09T22:01:59.268Z,101286.01
2022-10-09T22:06:06.119Z,101287.91
2022-10-09T22:10:08.340Z,101288.70
2022-10-09T22:14:10.168Z,101293.71
2022-10-09T22:18:12.297Z,101294.48
2022-10-09T22:22:14.319Z,101296.25
2022-10-09T22:26:19.041Z,101297.00
2022-10-09T22:30:20.837Z,101297.01
2022-10-09T22:34:22.770Z,101297.15
2022-10-09T22:38:24.621Z,101298.55
2022-10-09T22:42:26.436Z,101293.05
2022-10-09T22:46:31.754Z,101291.88
2022-10-09T22:50:36.457Z,101287.61
2022-10-09T22:54:38.268Z,101287.52
2022-10-09T22:58:40.142Z,101291.85
2022-10-09T23:02:41.968Z,101294.98
2022-10-09T23:06:45.034Z,101294.23
2022-10-09T23:10:46.830Z,101293.77
2022-10-09T23:14:48.711Z,101289.56
2022-10-09T23:18:50.994Z,101287.95
2022-10-09T23:22:53.545Z,101282.66
2022-10-09T23:26:55.401Z,101285.77
2022-10-09T23:31:05.102Z,101288.66
2022-10-09T23:35:07.327Z,101287.05
2022-10-09T23:39:09.362Z,101287.70
2022-10-09T23:43:11.141Z,101286.45
2022-10-09T23:47:12.965Z,101284.08
2022-10-09T23:51:15.315Z,101287.83
2022-10-09T23:55:17.166Z,101292.63
2022-10-09T23:59:19.591Z,101290.39
